createdAt,value
2023-03-18T00:00:11.377Z,3.43
2023-03-18T00:02:39.241Z,3.14
2023-03-18T00:05:07.550Z,3.36
2023-03-18T00:07:36.178Z,3.32
2023-03-18T00:10:03.671Z,3.28
2023-03-18T00:12:30.155Z,3.15
2023-03-18T00:14:56.584Z,3.20
2023-03-18T00:17:22.981Z,3.10
2023-03-18T00:19:50.266Z,3.22
2023-03-18T00:22:17.263Z,3.08
2023-03-18T00:24:43.703Z,3.21
2023-03-18T00:27:10.264Z,3.35
2023-03-18T00:29:37.662Z,2.95
2023-03-18T00:32:04.234Z,3.04
2023-03-18T00:34:30.627Z,3.11
2023-03-18T00:36:57.207Z,3.28
2023-03-18T00:39:26.386Z,3.06
2023-03-18T00:41:55.963Z,3.27
2023-03-18T00:44:22.866Z,2.91
2023-03-18T00:46:49.309Z,3.08
2023-03-18T00:49:17.572Z,3.11
2023-03-18T00:51:43.982Z,3.05
2023-03-18T00:54:13.577Z,3.10
2023-03-18T00:56:40.578Z,3.03
2023-03-18T00:59:10.350Z,3.29
2023-03-18T01:01:37.447Z,3.15
2023-03-18T01:04:04.426Z,3.12
2023-03-18T01:06:33.892Z,3.13
2023-03-18T01:09:05.048Z,3.09
2023-03-18T01:11:31.924Z,3.08
2023-03-18T01:13:59.546Z,2.95
2023-03-18T01:16:26.690Z,3.09
2023-03-18T01:18:53.962Z,3.06
2023-03-18T01:21:20.884Z,2.88
2023-03-18T01:23:47.297Z,2.90
2023-03-18T01:26:13.742Z,2.87
2023-03-18T01:28:41.265Z,2.95
2023-03-18T01:31:08.448Z,2.96
2023-03-18T01:33:35.672Z,3.00
2023-03-18T01:36:03.787Z,2.95
2023-03-18T01:38:31.055Z,2.86
2023-03-18T01:40:58.882Z,3.09
2023-03-18T01:43:29.459Z,2.95
2023-03-18T01:45:58.868Z,2.83
2023-03-18T01:48:29.370Z,2.99
2023-03-18T01:51:00.739Z,2.89
2023-03-18T01:53:31.795Z,2.86
2023-03-18T01:55:59.231Z,2.81
2023-03-18T01:58:34.181Z,2.82
2023-03-18T02:01:12.951Z,3.05
2023-03-18T02:03:42.705Z,2.85
2023-03-18T02:06:10.114Z,2.84
2023-03-18T02:08:39.466Z,2.82
2023-03-18T02:11:08.297Z,2.89
2023-03-18T02:13:40.616Z,2.96
2023-03-18T02:16:14.747Z,3.01
2023-03-18T02:18:45.893Z,2.74
2023-03-18T02:21:49.682Z,2.80
2023-03-18T02:24:27.444Z,2.66
2023-03-18T02:26:59.975Z,2.74
2023-03-18T02:29:31.123Z,2.63
2023-03-18T02:32:00.858Z,2.42
2023-03-18T02:34:29.238Z,2.59
2023-03-18T02:36:57.207Z,2.40
2023-03-18T02:39:23.999Z,2.51
2023-03-18T02:41:50.486Z,2.63
2023-03-18T02:44:18.690Z,2.36
2023-03-18T02:46:54.070Z,2.68
2023-03-18T02:49:22.483Z,2.33
2023-03-18T02:51:49.968Z,2.48
2023-03-18T02:54:23.349Z,2.29
2023-03-18T02:56:50.377Z,2.51
2023-03-18T02:59:17.605Z,2.59
2023-03-18T03:02:19.001Z,2.51
2023-03-18T03:04:45.385Z,2.43
2023-03-18T03:07:12.388Z,2.20
2023-03-18T03:09:39.103Z,2.26
2023-03-18T03:12:05.745Z,2.10
2023-03-18T03:14:32.168Z,2.24
2023-03-18T03:16:58.789Z,1.98
2023-03-18T03:19:25.850Z,2.07
2023-03-18T03:21:52.280Z,1.95
2023-03-18T03:24:18.715Z,2.02
2023-03-18T03:26:45.118Z,1.85
2023-03-18T03:29:16.650Z,2.07
2023-03-18T03:31:43.094Z,1.88
2023-03-18T03:34:09.640Z,1.81
2023-03-18T03:36:36.346Z,1.94
2023-03-18T03:39:04.033Z,1.83
2023-03-18T03:41:30.457Z,1.94
2023-03-18T03:43:56.930Z,1.91
2023-03-18T03:46:23.487Z,1.94
2023-03-18T03:48:50.303Z,1.99
2023-03-18T03:51:16.812Z,2.11
2023-03-18T03:53:46.112Z,1.99
2023-03-18T03:56:22.279Z,2.17
2023-03-18T03:58:48.892Z,2.12
2023-03-18T04:01:15.399Z,2.07
2023-03-18T04:03:42.363Z,2.01
2023-03-18T04:06:08.920Z,2.01
2023-03-18T04:08:35.311Z,2.09
2023-03-18T04:11:04.505Z,2.04
2023-03-18T04:13:31.143Z,2.09
2023-03-18T04:15:57.556Z,2.24
2023-03-18T04:18:23.958Z,2.13
2023-03-18T04:20:50.343Z,2.25
2023-03-18T04:23:16.770Z,2.28
2023-03-18T04:25:43.289Z,2.30
2023-03-18T04:28:09.742Z,2.29
2023-03-18T04:30:36.321Z,2.36
2023-03-18T04:33:03.440Z,2.47
2023-03-18T04:35:30.066Z,2.22
2023-03-18T04:37:56.760Z,2.29
2023-03-18T04:40:23.688Z,2.44
2023-03-18T04:42:50.227Z,2.33
2023-03-18T04:45:17.679Z,2.30
2023-03-18T04:47:45.429Z,2.27
2023-03-18T04:50:13.357Z,2.25
2023-03-18T04:52:40.706Z,2.17
2023-03-18T04:55:08.305Z,2.14
2023-03-18T04:57:37.548Z,2.06
2023-03-18T05:00:10.418Z,2.05
2023-03-18T05:02:39.418Z,2.23
2023-03-18T05:05:06.013Z,2.08
2023-03-18T05:07:33.413Z,2.16
2023-03-18T05:09:59.873Z,2.13
2023-03-18T05:12:26.447Z,2.12
2023-03-18T05:14:52.950Z,2.11
2023-03-18T05:17:19.899Z,2.04
2023-03-18T05:19:57.244Z,2.09
2023-03-18T05:22:23.712Z,2.50
2023-03-18T05:24:50.321Z,2.30
2023-03-18T05:27:18.407Z,2.29
2023-03-18T05:29:45.853Z,2.47
2023-03-18T05:32:14.608Z,2.53
2023-03-18T05:34:42.096Z,2.52
2023-03-18T05:37:10.538Z,2.60
2023-03-18T05:39:37.165Z,2.55
2023-03-18T05:42:04.731Z,2.34
2023-03-18T05:44:31.398Z,2.35
2023-03-18T05:46:58.521Z,2.27
2023-03-18T05:49:24.921Z,2.18
2023-03-18T05:51:53.695Z,2.08
2023-03-18T05:54:21.232Z,2.07
2023-03-18T05:56:47.692Z,2.06
2023-03-18T05:59:15.246Z,2.35
2023-03-18T06:01:42.087Z,2.51
2023-03-18T06:04:09.073Z,2.32
2023-03-18T06:06:37.273Z,2.34
2023-03-18T06:09:04.393Z,2.37
2023-03-18T06:11:31.167Z,2.44
2023-03-18T06:13:58.149Z,2.50
2023-03-18T06:16:25.727Z,2.41
2023-03-18T06:18:52.185Z,2.59
2023-03-18T06:21:18.746Z,2.54
2023-03-18T06:23:45.262Z,2.61
2023-03-18T06:26:11.720Z,2.68
2023-03-18T06:28:38.168Z,2.75
2023-03-18T06:31:04.863Z,2.68
2023-03-18T06:33:32.827Z,2.91
2023-03-18T06:36:00.519Z,2.90
2023-03-18T06:38:28.781Z,2.94
2023-03-18T06:40:56.683Z,2.96
2023-03-18T06:43:23.350Z,3.09
2023-03-18T06:45:50.694Z,2.88
2023-03-18T06:48:18.197Z,3.18
2023-03-18T06:50:45.196Z,3.32
2023-03-18T06:53:12.597Z,3.36
2023-03-18T06:55:39.213Z,3.24
2023-03-18T06:58:05.819Z,3.57
2023-03-18T07:00:34.021Z,3.58
2023-03-18T07:03:01.421Z,3.65
2023-03-18T07:05:28.611Z,3.69
2023-03-18T07:07:55.011Z,3.93
2023-03-18T07:10:25.470Z,4.01
2023-03-18T07:12:52.441Z,4.12
2023-03-18T07:15:21.602Z,4.28
2023-03-18T07:17:49.537Z,4.48
2023-03-18T07:20:17.710Z,4.37
2023-03-18T07:22:46.770Z,4.63
2023-03-18T07:25:13.729Z,4.63
2023-03-18T07:27:42.216Z,4.63
2023-03-18T07:30:12.094Z,4.86
2023-03-18T07:32:38.727Z,4.89
2023-03-18T07:35:06.452Z,5.13
2023-03-18T07:37:33.521Z,5.35
2023-03-18T07:40:00.120Z,5.27
2023-03-18T07:42:26.863Z,5.45
2023-03-18T07:44:53.538Z,5.53
2023-03-18T07:47:20.862Z,5.59
2023-03-18T07:49:47.638Z,5.90
2023-03-18T07:52:14.456Z,5.92
2023-03-18T07:54:41.646Z,5.85
2023-03-18T07:57:08.115Z,6.11
2023-03-18T07:59:34.613Z,6.19
2023-03-18T08:02:01.471Z,6.42
2023-03-18T08:04:28.642Z,6.56
2023-03-18T08:06:55.197Z,6.37
2023-03-18T08:09:22.358Z,6.25
2023-03-18T08:11:48.751Z,6.21
2023-03-18T08:14:15.521Z,6.38
2023-03-18T08:16:44.068Z,6.56
2023-03-18T08:19:13.538Z,6.74
2023-03-18T08:21:43.978Z,6.82
2023-03-18T08:24:11.919Z,6.74
2023-03-18T08:26:39.979Z,7.12
2023-03-18T08:29:06.392Z,7.08
2023-03-18T08:31:32.949Z,7.27
2023-03-18T08:34:00.461Z,7.39
2023-03-18T08:36:28.629Z,7.51
2023-03-18T08:38:57.060Z,7.49
2023-03-18T08:41:25.642Z,7.72
2023-03-18T08:43:57.279Z,7.73
2023-03-18T08:46:29.994Z,7.96
2023-03-18T08:48:56.901Z,8.32
2023-03-18T08:51:23.400Z,8.29
2023-03-18T08:53:49.797Z,8.56
2023-03-18T08:56:17.387Z,8.63
2023-03-18T08:58:45.783Z,8.96
2023-03-18T09:01:14.957Z,8.99
2023-03-18T09:03:41.545Z,9.01
2023-03-18T09:06:09.652Z,9.29
2023-03-18T09:08:36.656Z,9.16
2023-03-18T09:11:03.156Z,9.39
2023-03-18T09:13:34.320Z,9.74
2023-03-18T09:16:04.066Z,9.64
2023-03-18T09:18:56.499Z,10.02
2023-03-18T09:21:23.033Z,9.98
2023-03-18T09:23:52.656Z,10.10
2023-03-18T09:26:19.107Z,10.32
2023-03-18T09:28:45.550Z,10.43
2023-03-18T09:31:15.551Z,10.65
2023-03-18T09:33:56.671Z,10.82
2023-03-18T09:36:41.113Z,11.01
2023-03-18T09:39:08.869Z,11.34
2023-03-18T09:41:53.850Z,11.53
2023-03-18T09:44:31.693Z,11.63
2023-03-18T09:47:04.401Z,12.11
2023-03-18T09:50:00.175Z,12.11
2023-03-18T09:52:36.704Z,12.14
2023-03-18T09:55:21.534Z,12.36
2023-03-18T09:57:51.542Z,12.47
2023-03-18T10:00:42.472Z,12.82
2023-03-18T10:03:27.828Z,13.07
2023-03-18T10:06:27.848Z,13.16
2023-03-18T10:09:00.325Z,13.50
2023-03-18T10:11:32.183Z,13.44
2023-03-18T10:14:20.488Z,13.82
2023-03-18T10:17:09.933Z,14.05
2023-03-18T10:19:58.339Z,14.28
2023-03-18T10:22:57.713Z,14.53
2023-03-18T10:25:33.419Z,14.80
2023-03-18T10:28:05.922Z,14.85
2023-03-18T10:30:45.154Z,14.77
2023-03-18T10:33:22.994Z,15.16
2023-03-18T10:36:05.550Z,14.97
2023-03-18T10:38:37.293Z,15.19
2023-03-18T10:41:15.356Z,15.27
2023-03-18T10:43:53.500Z,15.14
2023-03-18T10:46:24.466Z,15.24
2023-03-18T10:49:14.973Z,15.18
2023-03-18T10:51:50.101Z,15.40
2023-03-18T10:54:52.876Z,15.17
2023-03-18T10:57:21.542Z,15.25
2023-03-18T10:59:50.430Z,15.06
2023-03-18T11:02:32.502Z,15.34
2023-03-18T11:05:04.579Z,15.40
2023-03-18T11:07:34.056Z,15.41
2023-03-18T11:10:24.961Z,15.51
2023-03-18T11:13:03.363Z,15.51
2023-03-18T11:15:56.831Z,15.38
2023-03-18T11:18:26.764Z,15.27
2023-03-18T11:21:00.672Z,15.30
2023-03-18T11:23:48.997Z,15.52
2023-03-18T11:26:24.979Z,15.60
2023-03-18T11:29:10.986Z,15.78
2023-03-18T11:31:57.617Z,15.54
2023-03-18T11:34:29.716Z,15.49
2023-03-18T11:37:11.721Z,15.71
2023-03-18T11:39:40.762Z,15.54
2023-03-18T11:42:22.491Z,15.56
2023-03-18T11:44:54.667Z,15.32
2023-03-18T11:47:36.514Z,15.47
2023-03-18T11:50:04.501Z,15.57
2023-03-18T11:52:40.166Z,15.92
2023-03-18T11:55:45.106Z,16.00
2023-03-18T11:58:35.823Z,16.37
2023-03-18T12:01:21.062Z,16.40
2023-03-18T12:03:50.583Z,16.50
2023-03-18T12:06:23.091Z,16.71
2023-03-18T12:09:17.560Z,16.88
2023-03-18T12:11:47.076Z,16.88
2023-03-18T12:14:25.779Z,16.87
2023-03-18T12:17:24.097Z,16.86
2023-03-18T12:19:56.719Z,16.74
2023-03-18T12:22:59.529Z,16.31
2023-03-18T12:25:38.524Z,16.36
2023-03-18T12:28:26.700Z,16.36
2023-03-18T12:31:08.118Z,16.44
2023-03-18T12:33:40.542Z,16.72
2023-03-18T12:36:27.167Z,16.62
2023-03-18T12:39:04.037Z,16.64
2023-03-18T12:41:40.476Z,16.37
2023-03-18T12:44:13.515Z,16.48
2023-03-18T12:46:52.140Z,16.46
2023-03-18T12:49:44.873Z,16.90
2023-03-18T12:52:27.534Z,17.14
2023-03-18T12:55:11.048Z,17.04
2023-03-18T12:58:20.833Z,17.33
2023-03-18T13:00:59.923Z,17.31
2023-03-18T13:03:34.587Z,17.12
2023-03-18T13:06:10.160Z,17.15
2023-03-18T13:08:52.150Z,17.25
2023-03-18T13:11:40.815Z,17.22
2023-03-18T13:14:17.763Z,17.62
2023-03-18T13:16:44.608Z,17.49
2023-03-18T13:19:12.371Z,17.16
2023-03-18T13:22:03.110Z,17.33
2023-03-18T13:24:54.012Z,17.31
2023-03-18T13:28:01.992Z,17.51
2023-03-18T13:30:44.995Z,17.47
2023-03-18T13:33:23.794Z,17.46
2023-03-18T13:35:59.392Z,17.39
2023-03-18T13:38:49.750Z,17.36
2023-03-18T13:41:46.418Z,17.11
2023-03-18T13:44:23.590Z,16.98
2023-03-18T13:47:04.716Z,17.65
2023-03-18T13:49:32.547Z,17.50
2023-03-18T13:52:02.064Z,17.67
2023-03-18T13:54:34.960Z,17.98
2023-03-18T13:57:16.875Z,17.84
2023-03-18T13:59:47.154Z,18.00
2023-03-18T14:02:38.025Z,18.08
2023-03-18T14:05:35.605Z,18.04
2023-03-18T14:08:28.134Z,17.71
2023-03-18T14:11:20.127Z,17.51
2023-03-18T14:13:51.722Z,17.63
2023-03-18T14:16:56.389Z,17.64
2023-03-18T14:19:32.598Z,17.32
2023-03-18T14:22:19.711Z,17.34
2023-03-18T14:24:47.934Z,17.38
2023-03-18T14:27:18.334Z,17.51
2023-03-18T14:29:47.849Z,17.43
2023-03-18T14:32:38.130Z,17.19
2023-03-18T14:35:28.157Z,17.33
2023-03-18T14:38:18.620Z,17.18
2023-03-18T14:40:48.218Z,17.32
2023-03-18T14:43:27.082Z,17.10
2023-03-18T14:46:00.436Z,17.25
2023-03-18T14:48:30.470Z,17.45
2023-03-18T14:51:05.688Z,17.53
2023-03-18T14:53:49.007Z,17.38
2023-03-18T14:56:22.698Z,17.45
2023-03-18T14:58:53.365Z,17.07
2023-03-18T15:01:34.088Z,17.08
2023-03-18T15:04:01.708Z,17.31
2023-03-18T15:06:30.233Z,16.93
2023-03-18T15:08:59.106Z,17.44
2023-03-18T15:11:30.075Z,17.06
2023-03-18T15:14:00.434Z,17.04
2023-03-18T15:16:33.110Z,16.80
2023-03-18T15:19:00.219Z,16.84
2023-03-18T15:21:35.911Z,16.84
2023-03-18T15:24:05.788Z,16.54
2023-03-18T15:26:42.513Z,16.86
2023-03-18T15:29:35.497Z,17.12
2023-03-18T15:32:25.892Z,17.30
2023-03-18T15:35:19.163Z,17.39
2023-03-18T15:37:48.069Z,17.20
2023-03-18T15:40:30.831Z,16.99
2023-03-18T15:43:18.928Z,16.92
2023-03-18T15:45:48.230Z,16.81
2023-03-18T15:48:40.393Z,17.16
2023-03-18T15:51:25.732Z,17.01
2023-03-18T15:53:55.214Z,17.08
2023-03-18T15:56:30.223Z,16.81
2023-03-18T15:59:06.920Z,17.07
2023-03-18T16:01:35.080Z,16.90
2023-03-18T16:04:04.935Z,17.20
2023-03-18T16:06:34.424Z,16.94
2023-03-18T16:09:26.154Z,17.01
2023-03-18T16:12:03.462Z,16.62
2023-03-18T16:14:44.073Z,16.66
2023-03-18T16:17:16.076Z,16.72
2023-03-18T16:19:43.947Z,16.79
2023-03-18T16:22:10.413Z,16.41
2023-03-18T16:24:37.103Z,16.43
2023-03-18T16:27:05.545Z,16.54
2023-03-18T16:29:36.903Z,16.40
2023-03-18T16:32:04.316Z,16.32
2023-03-18T16:34:30.741Z,16.17
2023-03-18T16:36:57.166Z,16.26
2023-03-18T16:39:45.687Z,16.23
2023-03-18T16:42:12.134Z,15.95
2023-03-18T16:44:38.769Z,15.89
2023-03-18T16:47:25.160Z,15.64
2023-03-18T16:49:52.372Z,15.58
2023-03-18T16:52:19.231Z,15.37
2023-03-18T16:54:45.769Z,15.11
2023-03-18T16:57:19.424Z,15.12
2023-03-18T16:59:51.050Z,14.50
2023-03-18T17:02:40.644Z,14.21
2023-03-18T17:05:13.492Z,13.73
2023-03-18T17:07:39.941Z,13.55
2023-03-18T17:10:09.116Z,13.26
2023-03-18T17:12:36.601Z,13.01
2023-03-18T17:15:09.827Z,12.77
2023-03-18T17:17:36.555Z,12.42
2023-03-18T17:20:14.323Z,12.22
2023-03-18T17:22:40.768Z,11.91
2023-03-18T17:25:30.352Z,11.76
2023-03-18T17:28:04.629Z,11.41
2023-03-18T17:30:39.450Z,11.28
2023-03-18T17:33:24.089Z,11.26
2023-03-18T17:35:52.096Z,10.89
2023-03-18T17:38:21.831Z,10.61
2023-03-18T17:40:50.509Z,10.41
2023-03-18T17:43:21.418Z,10.34
2023-03-18T17:45:47.885Z,10.23
2023-03-18T17:48:20.202Z,10.26
2023-03-18T17:50:54.460Z,10.14
2023-03-18T17:53:31.833Z,10.22
2023-03-18T17:55:59.202Z,9.80
2023-03-18T17:58:28.523Z,9.55
2023-03-18T18:01:02.231Z,9.55
2023-03-18T18:03:30.742Z,9.13
2023-03-18T18:06:03.497Z,9.02
2023-03-18T18:08:31.584Z,8.98
2023-03-18T18:11:18.938Z,9.01
2023-03-18T18:13:45.603Z,8.73
2023-03-18T18:16:12.814Z,8.57
2023-03-18T18:18:39.961Z,8.64
2023-03-18T18:21:14.486Z,8.62
2023-03-18T18:23:53.276Z,8.57
2023-03-18T18:26:21.921Z,8.45
2023-03-18T18:28:51.211Z,8.42
2023-03-18T18:31:19.824Z,8.42
2023-03-18T18:33:49.712Z,8.21
2023-03-18T19:16:42.485Z,7.27
2023-03-18T19:19:14.886Z,7.79
2023-03-18T19:21:43.736Z,7.61
2023-03-18T19:26:56.181Z,7.78
2023-03-18T20:09:53.166Z,7.35
2023-03-18T20:12:31.911Z,7.79
2023-03-18T20:14:59.555Z,7.70
2023-03-18T20:17:37.664Z,7.61
2023-03-18T20:20:11.679Z,7.44
2023-03-18T20:22:51.792Z,7.85
2023-03-18T20:25:32.730Z,7.37
2023-03-18T20:28:00.726Z,7.64
2023-03-18T20:30:30.112Z,7.51
2023-03-18T20:32:58.223Z,7.23
2023-03-18T20:35:27.584Z,7.04
2023-03-18T21:23:48.973Z,6.85
2023-03-18T21:26:15.538Z,6.39
2023-03-18T21:28:41.948Z,6.38
2023-03-18T21:31:31.425Z,6.53
2023-03-18T21:33:57.856Z,6.23
2023-03-18T21:36:24.256Z,6.42
2023-03-18T21:38:50.840Z,6.11
2023-03-18T21:41:24.202Z,6.39
2023-03-18T21:43:51.606Z,6.40
2023-03-18T21:46:21.141Z,6.12
2023-03-18T21:48:47.782Z,5.85
2023-03-18T21:51:38.501Z,6.00
2023-03-18T21:54:21.136Z,5.80
2023-03-18T21:56:47.530Z,5.85
2023-03-18T21:59:13.916Z,5.84
2023-03-18T22:01:40.419Z,5.92
2023-03-18T22:04:06.935Z,5.76
2023-03-18T22:06:41.580Z,5.73
2023-03-18T22:09:08.683Z,5.58
2023-03-18T22:11:35.092Z,5.65
2023-03-18T22:14:01.470Z,5.66
2023-03-18T22:16:27.905Z,5.67
2023-03-18T22:18:54.331Z,5.73
2023-03-18T22:21:28.324Z,5.90
2023-03-18T22:23:55.678Z,5.87
2023-03-18T22:26:22.356Z,6.00
2023-03-18T22:28:50.485Z,5.95
2023-03-18T22:31:20.815Z,5.93
2023-03-18T22:33:47.689Z,5.83
2023-03-18T22:36:16.313Z,6.01
2023-03-18T22:38:42.860Z,5.93
2023-03-18T22:41:30.343Z,6.17
2023-03-18T22:44:02.627Z,5.97
2023-03-18T22:46:29.931Z,5.96
2023-03-18T22:48:56.864Z,6.00
2023-03-18T22:51:29.546Z,6.33
2023-03-18T22:53:56.077Z,6.01
2023-03-18T22:56:23.269Z,5.92
2023-03-18T22:58:50.733Z,6.12
2023-03-18T23:01:19.763Z,6.12
2023-03-18T23:03:47.543Z,6.17
2023-03-18T23:06:18.247Z,5.97
2023-03-18T23:08:45.669Z,5.92
2023-03-18T23:11:12.901Z,5.97
2023-03-18T23:13:42.306Z,5.89
2023-03-18T23:16:26.305Z,5.96
2023-03-18T23:18:52.751Z,5.90
2023-03-18T23:21:21.658Z,6.05
2023-03-18T23:23:48.174Z,5.91
2023-03-18T23:26:14.790Z,5.83
2023-03-18T23:28:44.855Z,6.00
2023-03-18T23:31:12.307Z,6.03
2023-03-18T23:33:38.814Z,5.78
2023-03-18T23:36:05.634Z,5.68
2023-03-18T23:38:32.188Z,5.71
2023-03-18T23:40:58.617Z,6.05
2023-03-18T23:43:25.672Z,5.84
2023-03-18T23:45:52.152Z,5.84
2023-03-18T23:48:56.908Z,5.92
2023-03-18T23:51:23.298Z,5.90
2023-03-18T23:53:49.685Z,5.83
2023-03-18T23:56:17.107Z,5.85
2023-03-18T23:58:43.513Z,5.79
